Alfonso, Virginia
Current Conditions -  °F | °C
As of 11:35 AM on Friday 28 Nov 2014 (Local Time) from KW75 Reporting Station
Clear Clear  
Wind Chill: 32°   Ceiling: Unl
Heat Index: 40°   Visibility: 10mi
Dew Point: 22°   Wind: 12mph
Humidity: 50%   Direction: 300°WNW
Pressure: 30.29"   Gusts: 17mph
Location:  37.7649°N, 76.5055°W
Report Text: KW75 281635Z AUTO 30010G15KT 10SM CLR 04/M05 A3029 RMK AO1 T00421053
Loading
Personal Weather Stations






























Interactive Weather Map New forecast layout! Learn more

10-Day Weather Forecast

Advertisements
Track Severe Weather on mobile